createdAt,value
2018-05-21T00:00:44.350Z,13.80
2018-05-21T00:03:11.934Z,13.84
2018-05-21T00:05:39.334Z,13.82
2018-05-21T00:08:06.831Z,13.83
2018-05-21T00:10:34.379Z,13.78
2018-05-21T00:13:03.879Z,13.79
2018-05-21T00:15:31.438Z,13.80
2018-05-21T00:17:58.999Z,13.72
2018-05-21T00:20:26.474Z,13.68
2018-05-21T00:22:53.963Z,13.63
2018-05-21T00:25:21.486Z,13.55
2018-05-21T00:27:48.983Z,13.52
2018-05-21T00:30:16.506Z,13.49
2018-05-21T00:32:44.007Z,13.48
2018-05-21T00:35:11.486Z,13.47
2018-05-21T00:37:38.986Z,13.47
2018-05-21T00:40:06.651Z,13.49
2018-05-21T00:42:34.123Z,13.51
2018-05-21T00:45:01.644Z,13.56
2018-05-21T00:47:29.207Z,13.66
2018-05-21T00:49:56.721Z,13.84
2018-05-21T00:52:24.205Z,13.97
2018-05-21T00:55:03.658Z,14.11
2018-05-21T00:57:31.227Z,14.21
2018-05-21T00:59:58.795Z,14.32
2018-05-21T01:02:26.340Z,14.35
2018-05-21T01:04:54.819Z,14.35
2018-05-21T01:07:22.303Z,14.44
2018-05-21T01:09:49.800Z,14.56
2018-05-21T01:12:17.278Z,14.63
2018-05-21T01:14:44.792Z,14.66
2018-05-21T01:17:12.319Z,14.72
2018-05-21T01:19:39.867Z,14.78
2018-05-21T01:22:07.430Z,14.82
2018-05-21T01:24:34.995Z,14.85
2018-05-21T01:27:02.473Z,14.82
2018-05-21T01:29:30.010Z,14.84
2018-05-21T01:31:57.483Z,14.81
2018-05-21T01:34:24.978Z,14.80
2018-05-21T01:36:52.487Z,14.84
2018-05-21T01:39:19.979Z,14.93
2018-05-21T01:41:47.471Z,14.94
2018-05-21T01:44:14.967Z,14.90
2018-05-21T01:46:42.439Z,14.90
2018-05-21T01:49:09.932Z,14.88
2018-05-21T01:51:37.411Z,14.83
2018-05-21T01:54:04.898Z,14.82
2018-05-21T01:56:32.367Z,14.83
2018-05-21T01:59:00.827Z,14.87
2018-05-21T02:01:28.300Z,14.85
2018-05-21T02:03:55.770Z,14.83
2018-05-21T02:06:23.269Z,14.81
2018-05-21T02:08:50.748Z,14.75
2018-05-21T02:11:19.241Z,14.79
2018-05-21T02:13:46.808Z,14.84
2018-05-21T02:16:14.311Z,14.82
2018-05-21T02:18:41.794Z,14.83
2018-05-21T02:21:09.298Z,14.83
2018-05-21T02:23:36.879Z,14.76
2018-05-21T02:26:04.375Z,14.80
2018-05-21T02:28:31.870Z,14.85
2018-05-21T02:30:59.364Z,14.86
2018-05-21T02:33:26.860Z,14.88
2018-05-21T02:35:54.356Z,14.92
2018-05-21T02:38:21.935Z,14.97
2018-05-21T02:40:49.442Z,14.99
2018-05-21T02:43:16.927Z,14.97
2018-05-21T02:45:44.499Z,15.01
2018-05-21T02:48:12.066Z,15.06
2018-05-21T02:50:39.559Z,15.09
2018-05-21T02:53:07.027Z,15.06
2018-05-21T02:55:34.606Z,15.03
2018-05-21T02:58:02.087Z,15.00
2018-05-21T03:00:29.580Z,15.02
2018-05-21T03:02:57.060Z,15.04
2018-05-21T03:05:24.640Z,15.12
2018-05-21T03:07:52.198Z,15.13
2018-05-21T03:10:19.687Z,15.17
2018-05-21T03:12:47.170Z,15.13
2018-05-21T03:15:14.676Z,15.11
2018-05-21T03:17:42.235Z,15.12
2018-05-21T03:20:09.701Z,15.13
2018-05-21T03:22:37.215Z,15.14
2018-05-21T03:25:04.685Z,15.15
2018-05-21T03:27:32.183Z,15.20
2018-05-21T03:29:59.727Z,15.24
2018-05-21T03:32:27.390Z,15.24
2018-05-21T03:34:57.074Z,15.18
2018-05-21T03:37:24.567Z,15.13
2018-05-21T03:39:52.039Z,15.06
2018-05-21T03:42:19.610Z,15.01
2018-05-21T03:44:47.034Z,14.99
2018-05-21T03:47:14.531Z,15.05
2018-05-21T03:49:42.058Z,14.99
2018-05-21T03:52:09.554Z,14.97
2018-05-21T03:54:37.048Z,15.00
2018-05-21T03:57:04.782Z,15.01
2018-05-21T03:59:44.095Z,15.02
2018-05-21T04:02:23.509Z,15.01
2018-05-21T04:04:50.979Z,14.97
2018-05-21T04:07:19.362Z,14.95
2018-05-21T04:09:46.847Z,14.88
2018-05-21T04:12:14.395Z,14.86
2018-05-21T04:14:41.862Z,14.89
2018-05-21T04:17:09.515Z,14.92
2018-05-21T04:19:37.002Z,15.00
2018-05-21T04:22:04.712Z,15.06
2018-05-21T04:24:32.186Z,15.13
2018-05-21T04:26:59.834Z,15.23
2018-05-21T04:29:27.307Z,15.32
2018-05-21T04:31:54.916Z,15.37
2018-05-21T04:34:22.434Z,15.57
2018-05-21T04:36:49.947Z,15.72
2018-05-21T04:39:18.216Z,15.75
2018-05-21T04:41:46.077Z,15.89
2018-05-21T04:44:13.559Z,16.02
2018-05-21T04:46:41.041Z,16.04
2018-05-21T04:49:08.547Z,16.03
2018-05-21T04:51:36.047Z,15.97
2018-05-21T04:54:03.545Z,15.82
2018-05-21T04:56:31.136Z,15.72
2018-05-21T04:58:58.636Z,15.63
2018-05-21T05:01:26.270Z,15.55
2018-05-21T05:03:54.052Z,15.48
2018-05-21T05:06:21.543Z,15.43
2018-05-21T05:08:49.055Z,15.39
2018-05-21T05:11:20.275Z,15.37
2018-05-21T05:13:47.823Z,15.29
2018-05-21T05:16:15.296Z,15.19
2018-05-21T05:18:42.795Z,15.09
2018-05-21T05:21:10.339Z,15.06
2018-05-21T05:23:37.895Z,15.04
2018-05-21T05:26:05.404Z,15.03
2018-05-21T05:28:32.914Z,15.02
2018-05-21T05:31:00.468Z,15.09
2018-05-21T05:33:28.021Z,15.11
2018-05-21T05:35:55.737Z,15.25
2018-05-21T05:38:23.192Z,15.49
2018-05-21T05:40:50.711Z,15.78
2018-05-21T05:43:18.218Z,16.00
2018-05-21T05:45:45.695Z,16.07
2018-05-21T05:48:13.165Z,16.33
2018-05-21T05:50:40.751Z,16.28
2018-05-21T05:53:08.223Z,16.48
2018-05-21T05:55:35.775Z,16.56
2018-05-21T05:58:03.253Z,16.80
2018-05-21T06:00:30.751Z,16.98
2018-05-21T06:02:58.228Z,17.01
2018-05-21T06:05:25.756Z,17.38
2018-05-21T06:07:53.259Z,17.48
2018-05-21T06:10:20.813Z,17.62
2018-05-21T06:12:48.299Z,17.62
2018-05-21T06:15:15.887Z,17.64
2018-05-21T06:17:43.368Z,17.77
2018-05-21T06:20:11.111Z,17.57
2018-05-21T06:22:39.399Z,17.63
2018-05-21T06:25:06.912Z,17.68
2018-05-21T06:27:34.400Z,17.73
2018-05-21T06:30:01.949Z,17.61
2018-05-21T06:32:29.427Z,17.47
2018-05-21T06:34:56.922Z,17.48
2018-05-21T06:37:24.402Z,17.38
2018-05-21T06:39:51.948Z,17.44
2018-05-21T06:42:19.475Z,17.43
2018-05-21T06:44:47.003Z,17.46
2018-05-21T06:47:14.528Z,17.52
2018-05-21T06:49:42.027Z,17.51
2018-05-21T06:52:09.515Z,17.50
2018-05-21T06:54:37.095Z,17.52
2018-05-21T06:57:04.671Z,17.74
2018-05-21T06:59:32.195Z,17.80
2018-05-21T07:01:59.690Z,17.88
2018-05-21T07:04:27.184Z,17.81
2018-05-21T07:06:54.691Z,17.89
2018-05-21T07:09:22.190Z,18.00
2018-05-21T07:11:49.717Z,18.09
2018-05-21T07:14:17.186Z,18.22
2018-05-21T07:16:48.747Z,18.27
2018-05-21T07:19:16.260Z,18.45
2018-05-21T07:21:43.763Z,18.49
2018-05-21T07:24:11.243Z,18.65
2018-05-21T07:26:38.778Z,18.77
2018-05-21T07:29:06.251Z,18.82
2018-05-21T07:31:33.836Z,18.92
2018-05-21T07:34:01.338Z,18.88
2018-05-21T07:36:28.848Z,18.81
2018-05-21T07:38:56.410Z,18.99
2018-05-21T07:41:24.003Z,19.24
2018-05-21T07:43:51.580Z,19.29
2018-05-21T07:46:19.074Z,19.27
2018-05-21T07:48:46.614Z,19.47
2018-05-21T07:51:14.241Z,19.46
2018-05-21T07:53:41.749Z,19.41
2018-05-21T07:56:09.269Z,19.45
2018-05-21T07:58:36.765Z,19.66
2018-05-21T08:01:04.262Z,19.96
2018-05-21T08:03:31.751Z,20.20
2018-05-21T08:05:59.243Z,20.14
2018-05-21T08:08:26.844Z,20.10
2018-05-21T08:10:54.336Z,20.17
2018-05-21T08:13:21.878Z,20.35
2018-05-21T08:15:49.383Z,20.51
2018-05-21T08:18:16.880Z,20.69
2018-05-21T08:20:44.459Z,20.97
2018-05-21T08:23:12.004Z,21.09
2018-05-21T08:25:39.529Z,21.35
2018-05-21T08:28:07.079Z,21.54
2018-05-21T08:30:34.571Z,21.84
2018-05-21T08:33:02.175Z,22.07
2018-05-21T08:35:29.668Z,22.32
2018-05-21T08:37:57.410Z,22.17
2018-05-21T08:40:24.947Z,22.29
2018-05-21T08:42:52.447Z,22.24
2018-05-21T08:45:19.965Z,22.50
2018-05-21T08:47:47.451Z,22.80
2018-05-21T08:50:14.923Z,23.12
2018-05-21T08:52:42.602Z,23.11
2018-05-21T08:55:10.131Z,23.08
2018-05-21T08:57:37.592Z,23.39
2018-05-21T09:00:05.080Z,23.68
2018-05-21T09:02:32.590Z,23.93
2018-05-21T09:05:00.070Z,24.09
2018-05-21T09:07:27.616Z,23.83
2018-05-21T09:09:55.161Z,23.71
2018-05-21T09:12:22.713Z,24.01
2018-05-21T09:14:50.140Z,23.98
2018-05-21T09:17:17.893Z,24.60
2018-05-21T09:19:45.521Z,25.02
2018-05-21T09:22:13.035Z,25.25
2018-05-21T09:24:40.511Z,25.52
2018-05-21T09:27:08.031Z,25.64
2018-05-21T09:29:35.498Z,25.95
2018-05-21T09:32:02.981Z,26.28
2018-05-21T09:34:30.583Z,26.25
2018-05-21T09:36:58.101Z,26.22
2018-05-21T09:39:25.599Z,26.21
2018-05-21T09:41:53.122Z,26.51
2018-05-21T09:44:20.631Z,26.35
2018-05-21T09:46:48.217Z,26.12
2018-05-21T09:49:15.783Z,26.37
2018-05-21T09:51:43.276Z,26.68
2018-05-21T09:54:10.768Z,26.59
2018-05-21T09:56:38.253Z,26.63
2018-05-21T09:59:05.895Z,26.93
2018-05-21T10:01:33.373Z,27.27
2018-05-21T10:04:00.932Z,27.20
2018-05-21T10:06:28.411Z,27.18
2018-05-21T10:08:55.985Z,27.10
2018-05-21T10:11:23.460Z,26.69
2018-05-21T10:13:50.987Z,27.15
2018-05-21T10:16:18.468Z,27.42
2018-05-21T10:18:45.959Z,27.39
2018-05-21T10:21:13.456Z,27.44
2018-05-21T10:23:40.978Z,27.98
2018-05-21T10:26:08.513Z,28.06
2018-05-21T10:28:36.032Z,27.96
2018-05-21T10:31:03.583Z,27.86
2018-05-21T10:33:31.085Z,28.09
2018-05-21T10:35:58.586Z,28.33
2018-05-21T10:38:26.090Z,28.27
2018-05-21T10:40:53.584Z,28.41
2018-05-21T10:43:21.074Z,28.12
2018-05-21T10:45:48.563Z,28.20
2018-05-21T10:48:16.101Z,28.03
2018-05-21T10:50:43.614Z,28.02
2018-05-21T10:53:11.112Z,28.25
2018-05-21T10:55:38.627Z,28.26
2018-05-21T10:58:06.127Z,28.42
2018-05-21T11:00:33.695Z,28.53
2018-05-21T11:03:01.192Z,28.18
2018-05-21T11:05:28.742Z,28.15
2018-05-21T11:07:56.517Z,28.34
2018-05-21T11:10:24.142Z,28.97
2018-05-21T11:12:51.620Z,29.20
2018-05-21T11:15:19.114Z,30.12
2018-05-21T11:17:46.587Z,29.40
2018-05-21T11:20:14.091Z,29.13
2018-05-21T11:22:41.669Z,29.93
2018-05-21T11:25:09.353Z,29.84
2018-05-21T11:27:36.898Z,30.49
2018-05-21T11:30:04.501Z,32.10
2018-05-21T11:32:31.991Z,34.51
2018-05-21T11:34:59.482Z,34.22
2018-05-21T11:37:27.010Z,34.59
2018-05-21T11:39:54.502Z,34.50
2018-05-21T11:42:22.077Z,33.46
2018-05-21T11:44:49.696Z,33.15
2018-05-21T11:47:17.211Z,32.56
2018-05-21T11:49:44.702Z,32.65
2018-05-21T11:52:12.309Z,34.29
2018-05-21T11:54:39.831Z,36.11
2018-05-21T11:57:07.390Z,37.01
2018-05-21T11:59:34.860Z,38.11
2018-05-21T12:02:02.508Z,38.31
2018-05-21T12:04:29.978Z,39.12
2018-05-21T12:06:57.535Z,39.19
2018-05-21T12:09:25.087Z,38.48
2018-05-21T12:11:52.643Z,38.35
2018-05-21T12:14:20.166Z,38.40
2018-05-21T12:16:47.759Z,39.32
2018-05-21T12:19:15.278Z,39.92
2018-05-21T12:21:42.942Z,40.74
2018-05-21T12:24:10.603Z,40.19
2018-05-21T12:26:38.297Z,40.12
2018-05-21T12:29:05.875Z,40.86
2018-05-21T12:31:33.359Z,41.41
2018-05-21T12:34:00.891Z,40.72
2018-05-21T12:36:29.373Z,37.53
2018-05-21T12:38:56.838Z,35.46
2018-05-21T12:41:24.337Z,34.00
2018-05-21T12:43:51.846Z,33.17
2018-05-21T12:46:19.414Z,33.40
2018-05-21T12:48:46.991Z,32.27
2018-05-21T12:51:14.479Z,32.66
2018-05-21T12:53:41.968Z,35.93
2018-05-21T12:56:09.575Z,38.80
2018-05-21T12:58:37.055Z,40.59
2018-05-21T13:01:04.566Z,40.61
2018-05-21T13:03:32.107Z,38.87
2018-05-21T13:05:59.578Z,38.58
2018-05-21T13:08:27.111Z,37.67
2018-05-21T13:10:54.614Z,35.98
2018-05-21T13:13:22.164Z,35.00
2018-05-21T13:15:49.638Z,33.15
2018-05-21T13:18:17.146Z,32.36
2018-05-21T13:20:44.737Z,32.07
2018-05-21T13:23:12.259Z,31.89
2018-05-21T13:25:39.723Z,31.30
2018-05-21T13:28:10.115Z,31.18
2018-05-21T13:30:37.775Z,31.81
2018-05-21T13:33:06.395Z,32.65
2018-05-21T13:35:33.868Z,33.76
2018-05-21T13:38:01.350Z,35.83
2018-05-21T13:40:28.882Z,36.41
2018-05-21T13:42:56.750Z,37.43
2018-05-21T13:45:24.638Z,36.89
2018-05-21T13:47:54.341Z,38.21
2018-05-21T13:50:23.061Z,38.53
2018-05-21T13:52:50.797Z,40.41
2018-05-21T13:55:18.264Z,40.34
2018-05-21T13:57:45.778Z,40.19
2018-05-21T14:00:13.305Z,42.57
2018-05-21T14:02:40.791Z,43.35
2018-05-21T14:05:08.360Z,43.23
2018-05-21T14:07:35.890Z,40.14
2018-05-21T14:10:03.726Z,38.72
2018-05-21T14:12:31.311Z,36.65
2018-05-21T14:14:58.894Z,34.88
2018-05-21T14:17:28.821Z,32.72
2018-05-21T14:19:56.598Z,30.89
2018-05-21T14:22:24.096Z,30.36
2018-05-21T14:24:51.594Z,29.79
2018-05-21T14:27:19.078Z,29.34
2018-05-21T14:29:46.613Z,29.13
2018-05-21T14:32:14.086Z,28.68
2018-05-21T14:34:41.604Z,28.15
2018-05-21T14:37:09.075Z,27.99
2018-05-21T14:39:36.584Z,28.08
2018-05-21T14:42:04.107Z,28.01
2018-05-21T14:44:31.658Z,27.74
2018-05-21T14:46:59.160Z,27.61
2018-05-21T14:49:26.679Z,27.47
2018-05-21T14:51:54.243Z,27.35
2018-05-21T14:54:21.761Z,26.98
2018-05-21T14:56:52.067Z,26.82
2018-05-21T14:59:19.611Z,26.69
2018-05-21T15:01:47.062Z,26.46
2018-05-21T15:04:14.635Z,26.35
2018-05-21T15:06:42.200Z,26.25
2018-05-21T15:09:09.690Z,25.98
2018-05-21T15:11:37.170Z,26.04
2018-05-21T15:14:04.735Z,25.91
2018-05-21T15:16:36.199Z,25.74
2018-05-21T15:19:03.707Z,25.64
2018-05-21T15:21:31.174Z,25.52
2018-05-21T15:23:58.664Z,25.40
2018-05-21T15:26:29.672Z,25.08
2018-05-21T15:28:57.155Z,24.88
2018-05-21T15:31:24.634Z,24.91
2018-05-21T15:33:52.108Z,24.81
2018-05-21T15:36:19.595Z,24.85
2018-05-21T15:38:47.071Z,24.65
2018-05-21T15:41:14.602Z,24.49
2018-05-21T15:43:42.097Z,24.49
2018-05-21T15:46:09.614Z,24.59
2018-05-21T15:48:37.116Z,24.37
2018-05-21T15:51:04.606Z,23.99
2018-05-21T15:53:32.158Z,23.80
2018-05-21T15:55:59.654Z,23.56
2018-05-21T15:58:27.158Z,23.18
2018-05-21T16:00:54.717Z,22.85
2018-05-21T16:03:22.207Z,22.68
2018-05-21T16:05:49.714Z,22.55
2018-05-21T16:08:17.174Z,22.45
2018-05-21T16:10:44.734Z,22.43
2018-05-21T16:13:12.214Z,22.41
2018-05-21T16:15:39.706Z,22.48
2018-05-21T16:18:07.195Z,22.55
2018-05-21T16:20:34.693Z,22.50
2018-05-21T16:23:02.255Z,22.54
2018-05-21T16:25:29.752Z,22.48
2018-05-21T16:27:57.290Z,22.62
2018-05-21T16:30:24.827Z,22.83
2018-05-21T16:32:52.314Z,23.02
2018-05-21T16:35:19.802Z,23.20
2018-05-21T16:37:47.290Z,23.41
2018-05-21T16:40:14.790Z,23.28
2018-05-21T16:42:42.315Z,23.27
2018-05-21T16:45:09.901Z,23.47
2018-05-21T16:47:37.495Z,23.61
2018-05-21T16:50:04.976Z,23.61
2018-05-21T16:52:32.487Z,23.74
2018-05-21T16:54:59.952Z,23.85
2018-05-21T16:57:27.441Z,23.94
2018-05-21T16:59:55.029Z,24.20
2018-05-21T17:02:22.638Z,24.13
2018-05-21T17:04:50.183Z,24.78
2018-05-21T17:07:17.731Z,25.44
2018-05-21T17:09:45.212Z,25.70
2018-05-21T17:12:12.835Z,29.04
2018-05-21T17:14:40.295Z,31.98
2018-05-21T17:17:07.903Z,33.56
2018-05-21T17:19:35.382Z,33.17
2018-05-21T17:22:02.879Z,33.57
2018-05-21T17:24:30.344Z,34.29
2018-05-21T17:26:57.893Z,34.32
2018-05-21T17:29:25.402Z,34.61
2018-05-21T17:31:52.868Z,34.38
2018-05-21T17:34:20.359Z,33.77
2018-05-21T17:36:47.922Z,32.89
2018-05-21T17:39:15.432Z,31.85
2018-05-21T17:41:42.926Z,28.92
2018-05-21T17:44:10.386Z,26.03
2018-05-21T17:46:38.338Z,25.01
2018-05-21T17:49:05.924Z,24.27
2018-05-21T17:51:33.435Z,24.02
2018-05-21T17:54:00.943Z,23.75
2018-05-21T17:56:28.423Z,23.48
2018-05-21T17:58:55.914Z,23.23
2018-05-21T18:01:23.400Z,23.14
2018-05-21T18:03:51.442Z,22.97
2018-05-21T18:06:19.044Z,22.75
2018-05-21T18:08:48.096Z,22.67
2018-05-21T18:11:15.599Z,22.49
2018-05-21T18:13:43.097Z,22.39
2018-05-21T18:16:10.628Z,22.29
2018-05-21T18:18:38.113Z,22.11
2018-05-21T18:21:05.862Z,22.09
2018-05-21T18:23:33.739Z,21.91
2018-05-21T18:26:01.290Z,21.83
2018-05-21T18:28:28.807Z,21.82
2018-05-21T18:30:56.282Z,21.63
2018-05-21T18:33:23.773Z,21.53
2018-05-21T18:35:51.322Z,21.34
2018-05-21T18:38:18.806Z,21.23
2018-05-21T18:40:46.302Z,21.07
2018-05-21T18:43:13.790Z,20.93
2018-05-21T18:45:41.262Z,20.78
2018-05-21T18:48:08.798Z,20.57
2018-05-21T18:50:36.370Z,20.39
2018-05-21T18:53:03.940Z,20.21
2018-05-21T18:55:31.435Z,20.06
2018-05-21T18:57:58.950Z,19.89
2018-05-21T19:00:26.634Z,19.74
2018-05-21T19:02:54.221Z,19.55
2018-05-21T19:05:21.682Z,19.43
2018-05-21T19:07:49.191Z,19.32
2018-05-21T19:10:16.746Z,19.16
2018-05-21T19:12:44.253Z,19.02
2018-05-21T19:15:16.739Z,18.98
2018-05-21T19:17:44.345Z,18.86
2018-05-21T19:20:11.826Z,18.78
2018-05-21T19:22:39.342Z,18.68
2018-05-21T19:25:06.822Z,18.56
2018-05-21T19:27:34.288Z,18.46
2018-05-21T19:30:01.795Z,18.38
2018-05-21T19:32:29.271Z,18.36
2018-05-21T19:34:56.848Z,18.24
2018-05-21T19:37:24.324Z,18.12
2018-05-21T19:39:51.883Z,17.99
2018-05-21T19:42:19.365Z,17.92
2018-05-21T19:44:46.866Z,17.83
2018-05-21T19:47:14.426Z,17.76
2018-05-21T19:49:41.934Z,17.70
2018-05-21T19:52:09.401Z,17.63
2018-05-21T19:54:36.947Z,17.56
2018-05-21T19:57:04.563Z,17.50
2018-05-21T19:59:32.372Z,17.48
2018-05-21T20:01:59.867Z,17.51
2018-05-21T20:04:27.388Z,17.53
2018-05-21T20:06:54.931Z,17.52
2018-05-21T20:09:22.426Z,17.49
2018-05-21T20:11:49.913Z,17.43
2018-05-21T20:14:17.423Z,17.41
2018-05-21T20:16:44.895Z,17.38
2018-05-21T20:19:12.458Z,17.42
2018-05-21T20:21:39.914Z,17.42
2018-05-21T20:24:07.436Z,17.38
2018-05-21T20:26:34.947Z,17.39
2018-05-21T20:29:02.444Z,17.39
2018-05-21T20:31:29.950Z,17.37
2018-05-21T20:33:57.426Z,17.35
2018-05-21T20:36:24.959Z,17.26
2018-05-21T20:38:52.452Z,17.21
2018-05-21T20:41:19.959Z,17.18
2018-05-21T20:43:47.447Z,17.11
2018-05-21T20:46:14.993Z,17.03
2018-05-21T20:48:42.476Z,16.97
2018-05-21T20:51:09.974Z,16.90
2018-05-21T20:53:37.479Z,16.79
2018-05-21T20:56:05.137Z,16.65
2018-05-21T20:58:32.566Z,16.53
2018-05-21T21:01:00.046Z,16.41
2018-05-21T21:03:27.517Z,16.31
2018-05-21T21:05:55.013Z,16.21
2018-05-21T21:08:22.716Z,16.19
2018-05-21T21:10:50.203Z,16.12
2018-05-21T21:13:18.086Z,16.10
2018-05-21T21:15:45.591Z,16.04
2018-05-21T21:18:13.071Z,15.98
2018-05-21T21:20:40.591Z,15.94
2018-05-21T21:23:08.150Z,16.01
2018-05-21T21:25:35.642Z,15.99
2018-05-21T21:28:03.223Z,15.97
2018-05-21T21:30:30.722Z,15.95
2018-05-21T21:32:58.235Z,15.93
2018-05-21T21:35:25.716Z,15.89
2018-05-21T21:37:53.210Z,15.88
2018-05-21T21:40:21.092Z,15.83
2018-05-21T21:42:48.576Z,15.79
2018-05-21T21:45:16.092Z,15.78
2018-05-21T21:47:43.614Z,15.73
2018-05-21T21:50:11.150Z,15.68
2018-05-21T21:52:38.674Z,15.65
2018-05-21T21:55:06.140Z,15.62
2018-05-21T21:57:33.638Z,15.59
2018-05-21T22:00:01.110Z,15.56
2018-05-21T22:02:28.699Z,15.54
2018-05-21T22:04:56.256Z,15.48
2018-05-21T22:07:23.750Z,15.45
2018-05-21T22:09:51.215Z,15.37
2018-05-21T22:12:18.723Z,15.31
2018-05-21T22:14:46.256Z,15.30
2018-05-21T22:17:13.737Z,15.24
2018-05-21T22:19:41.308Z,15.21
2018-05-21T22:22:08.800Z,15.17
2018-05-21T22:24:37.368Z,15.16
2018-05-21T22:27:04.915Z,15.12
2018-05-21T22:29:32.379Z,15.08
2018-05-21T22:31:59.869Z,15.07
2018-05-21T22:34:27.408Z,15.02
2018-05-21T22:36:54.942Z,15.01
2018-05-21T22:39:22.432Z,15.06
2018-05-21T22:41:49.986Z,15.07
2018-05-21T22:44:17.474Z,15.00
2018-05-21T22:46:44.975Z,14.96
2018-05-21T22:49:12.558Z,14.89
2018-05-21T22:51:40.018Z,14.88
2018-05-21T22:54:07.501Z,14.87
2018-05-21T22:56:35.007Z,14.85
2018-05-21T22:59:02.570Z,14.84
2018-05-21T23:01:30.049Z,14.81
2018-05-21T23:03:57.686Z,14.84
2018-05-21T23:06:25.151Z,14.83
2018-05-21T23:08:52.702Z,14.79
2018-05-21T23:11:20.163Z,14.78
2018-05-21T23:13:47.761Z,14.75
2018-05-21T23:16:15.319Z,14.69
2018-05-21T23:18:42.807Z,14.64
2018-05-21T23:21:10.302Z,14.62
2018-05-21T23:23:37.867Z,14.62
2018-05-21T23:26:05.352Z,14.62
2018-05-21T23:28:32.882Z,14.59
2018-05-21T23:31:00.434Z,14.56
2018-05-21T23:33:28.004Z,14.49
2018-05-21T23:35:55.559Z,14.43
2018-05-21T23:38:23.056Z,14.41
2018-05-21T23:40:50.550Z,14.37
2018-05-21T23:43:18.172Z,14.38
2018-05-21T23:45:45.696Z,14.39
2018-05-21T23:48:13.171Z,14.35
2018-05-21T23:50:40.716Z,14.36
2018-05-21T23:53:08.184Z,14.33
2018-05-21T23:58:08.936Z,14.21
